KLEE

Leesburg International Airport

Leesburg, Florida, USA
METAR KLEE 161011Z AUTO 03004KT 10SM SCT026 13/09 A3020 RMK AO2 T01330089
Observed Flight Rules
Dec-16 @ 10:11 UTC (43 minutes ago) Visual Flight Rules
Wind Visibility Clouds
30° at 4 knots 10 miles
  • Scattered at 2,600' AGL
Temperatures Readings
Current 13°C / 55°F
Dewpoint 9°C / 48°F
Humidity 77%
Altimeter 30.2" Hg
Pressure 1023 hPa
Elevation 23
METAR KLEE 161011Z AUTO 03004KT 10SM SCT026 13/09 A3020 RMK AO2 T01330089
Observed Flight Rules
Dec-16 @ 10:11 UTC
(43 minutes ago)
VFR
Wind Visibility
30° at 4 knots 10 miles
Clouds
  • Scattered at 2,600' AGL
Temperature Dewpoint
13°C / 55°F 9°C / 48°F
Humidity Altimeter Pressure
77% 30.2" Hg 1023 hPa